Time;durP1;ratioP1;P1;durP2;ratioP2;P2;SDS_P1;SDS_P2;PMS_P1;PMS_P2;Temp;Humidity;BMP_temperature;BMP_pressure;BME280_temperature;BME280_humidity;BME280_pressure;Samples;Min_cycle;Max_cycle;Signal;HPM_P1;HPM_P2
2024/05/07 00:01:15;;;;;;;2.35;1.00;;;20.80;68.40;;;;;;6534532;43;116851;-72
2024/05/07 00:06:20;;;;;;;2.00;1.02;;;20.80;68.40;;;;;;6481005;44;115085;-76
2024/05/07 00:11:28;;;;;;;2.08;1.10;;;20.80;68.40;;;;;;6490343;43;116568;-80
2024/05/07 00:16:33;;;;;;;2.45;1.00;;;20.80;68.30;;;;;;6491271;44;117822;-78
2024/05/07 00:21:39;;;;;;;2.90;1.00;;;20.80;68.30;;;;;;6542558;43;110692;-70
2024/05/07 00:26:47;;;;;;;2.33;1.02;;;20.80;68.20;;;;;;6586980;43;110756;-73
2024/05/07 00:31:52;;;;;;;3.70;1.20;;;20.70;68.00;;;;;;6587235;43;111485;-72
2024/05/07 00:36:57;;;;;;;2.40;1.00;;;20.80;68.20;;;;;;6584963;43;110743;-71
2024/05/07 00:42:07;;;;;;;3.17;1.20;;;20.80;68.00;;;;;;6536742;43;112259;-74
2024/05/07 00:47:13;;;;;;;2.50;1.17;;;20.70;68.00;;;;;;6531658;43;110988;-72
2024/05/07 00:52:18;;;;;;;2.67;1.17;;;20.70;67.90;;;;;;6532342;43;110299;-71
2024/05/07 00:57:26;;;;;;;4.18;1.20;;;20.70;68.00;;;;;;6540167;43;112216;-72
2024/05/07 01:02:32;;;;;;;3.70;1.10;;;20.70;68.00;;;;;;6530958;43;110077;-75
2024/05/07 01:07:37;;;;;;;2.03;1.10;;;20.70;67.80;;;;;;6541446;43;113448;-76
2024/05/07 01:12:45;;;;;;;3.50;1.30;;;20.70;67.90;;;;;;6553119;43;110526;-75
2024/05/07 01:17:51;;;;;;;3.20;1.40;;;20.70;67.80;;;;;;6585036;43;110398;-80
2024/05/07 01:22:57;;;;;;;3.13;1.17;;;20.70;67.90;;;;;;6587968;43;110300;-79
2024/05/07 01:28:06;;;;;;;2.05;1.20;;;20.70;68.70;;;;;;6584685;43;112900;-78
2024/05/07 01:33:11;;;;;;;4.38;1.50;;;20.70;67.90;;;;;;6584838;43;112920;-79
2024/05/07 01:38:17;;;;;;;3.97;1.30;;;20.70;67.80;;;;;;6585021;43;114237;-76
2024/05/07 01:43:24;;;;;;;3.50;1.40;;;20.70;67.80;;;;;;6588054;43;114340;-76
2024/05/07 01:48:30;;;;;;;2.88;1.10;;;20.60;67.70;;;;;;6585823;43;115435;-81
2024/05/07 01:53:35;;;;;;;3.30;1.38;;;20.60;67.70;;;;;;6585514;43;114122;-80
2024/05/07 01:58:43;;;;;;;2.55;1.27;;;20.60;67.80;;;;;;6592713;43;115299;-80
2024/05/07 02:03:49;;;;;;;3.13;1.50;;;20.60;67.80;;;;;;6588027;43;115822;-79
2024/05/07 02:08:54;;;;;;;3.28;1.40;;;20.60;67.70;;;;;;6587015;43;110250;-78
2024/05/07 02:14:08;;;;;;;3.10;1.40;;;20.60;67.70;;;;;;6593746;43;113102;-79
2024/05/07 02:19:13;;;;;;;2.08;1.20;;;20.60;67.70;;;;;;6585528;43;110465;-78
2024/05/07 02:24:18;;;;;;;4.28;1.42;;;20.60;67.70;;;;;;6585161;43;110815;-76
2024/05/07 02:29:26;;;;;;;4.38;1.33;;;20.60;67.70;;;;;;6586437;43;110398;-78
2024/05/07 02:34:31;;;;;;;4.18;1.30;;;20.60;67.80;;;;;;6588882;43;112087;-80
2024/05/07 02:39:37;;;;;;;2.13;1.20;;;20.60;67.70;;;;;;6584585;43;110353;-80
2024/05/07 02:44:45;;;;;;;4.70;1.40;;;20.60;68.40;;;;;;6590108;43;111975;-78
2024/05/07 02:49:50;;;;;;;2.45;1.30;;;20.60;67.70;;;;;;6588537;43;110386;-79
2024/05/07 02:54:55;;;;;;;3.15;1.42;;;20.60;67.60;;;;;;6595081;43;113956;-79
2024/05/07 03:00:03;;;;;;;3.08;1.50;;;20.60;67.70;;;;;;6585775;43;110668;-72
2024/05/07 03:05:17;;;;;;;3.67;1.55;;;20.60;67.70;;;;;;6596335;43;112667;-72
2024/05/07 03:10:23;;;;;;;3.90;1.38;;;20.60;67.70;;;;;;6589380;43;110801;-75
2024/05/07 03:15:45;;;;;;;3.70;1.40;;;20.60;67.70;;;;;;6586929;43;113498;-80
2024/05/07 03:20:50;;;;;;;3.50;1.40;;;20.60;67.70;;;;;;6588142;43;115044;-71
2024/05/07 03:25:55;;;;;;;3.92;1.40;;;20.50;67.60;;;;;;6589237;43;114065;-75
2024/05/07 03:31:03;;;;;;;3.50;1.50;;;20.60;67.60;;;;;;6590067;43;113008;-71
2024/05/07 03:36:09;;;;;;;3.35;1.40;;;20.60;67.60;;;;;;6586155;43;117659;-73
2024/05/07 03:41:14;;;;;;;2.85;1.27;;;20.60;67.60;;;;;;6591830;43;117696;-71
2024/05/07 03:46:22;;;;;;;3.40;1.40;;;20.50;67.50;;;;;;6586655;43;114261;-73
2024/05/07 03:51:28;;;;;;;3.22;1.40;;;20.60;67.60;;;;;;6587238;43;115153;-74
2024/05/07 03:56:33;;;;;;;2.72;1.30;;;20.50;67.40;;;;;;6587762;43;116567;-74
2024/05/07 04:01:41;;;;;;;2.80;1.42;;;20.50;67.40;;;;;;6586039;43;110511;-73
2024/05/07 04:06:49;;;;;;;2.78;1.30;;;20.50;67.30;;;;;;6587807;43;111857;-78
2024/05/07 04:11:54;;;;;;;3.13;1.33;;;20.50;67.30;;;;;;6593092;43;112305;-73
2024/05/07 04:17:02;;;;;;;2.95;1.20;;;20.50;67.40;;;;;;6587433;43;110155;-79
2024/05/07 04:22:08;;;;;;;2.83;1.20;;;20.50;67.30;;;;;;6585484;43;110767;-77
2024/05/07 04:27:13;;;;;;;3.45;1.33;;;20.50;67.40;;;;;;6586427;43;110236;-74
2024/05/07 04:32:24;;;;;;;3.10;1.25;;;20.50;67.30;;;;;;6597452;43;112441;-72
2024/05/07 04:37:29;;;;;;;2.80;1.42;;;20.50;67.30;;;;;;6591101;43;111071;-77
2024/05/07 04:42:34;;;;;;;2.60;1.40;;;20.50;67.50;;;;;;6587623;43;111410;-72
2024/05/07 04:47:42;;;;;;;3.13;1.50;;;20.50;67.50;;;;;;6586291;43;110638;-72
2024/05/07 04:52:48;;;;;;;3.75;1.50;;;20.50;67.50;;;;;;6597497;43;111979;-72
2024/05/07 04:57:53;;;;;;;4.47;1.60;;;20.50;67.60;;;;;;6588497;43;110467;-75
2024/05/07 05:03:01;;;;;;;4.07;1.60;;;20.50;67.50;;;;;;6586430;43;114917;-74
2024/05/07 05:08:12;;;;;;;5.65;1.80;;;20.50;67.60;;;;;;6587211;43;114281;-73
2024/05/07 05:13:18;;;;;;;3.00;1.75;;;20.50;67.70;;;;;;6584140;43;116095;-81
2024/05/07 05:18:26;;;;;;;3.95;1.70;;;20.50;67.70;;;;;;6591024;43;116637;-80
2024/05/07 05:23:32;;;;;;;4.75;1.92;;;20.50;67.80;;;;;;6587036;43;116162;-77
2024/05/07 05:28:37;;;;;;;5.10;2.05;;;20.50;67.90;;;;;;6585804;43;115060;-82
2024/05/07 05:33:45;;;;;;;5.10;1.83;;;20.50;67.90;;;;;;6586007;43;115492;-80
2024/05/07 05:38:50;;;;;;;;;;;20.50;68.10;;;;;;6585472;43;115098;-79
2024/05/07 05:43:55;;;;;;;3.70;1.90;;;20.50;68.10;;;;;;6585699;43;114681;-73
2024/05/07 05:49:03;;;;;;;5.70;2.20;;;20.50;68.20;;;;;;6587203;43;111590;-76
2024/05/07 05:54:08;;;;;;;;;;;20.50;68.20;;;;;;6608291;43;112467;-79
2024/05/07 05:59:15;;;;;;;5.60;2.20;;;20.50;68.20;;;;;;6590797;43;112610;-73
2024/05/07 06:04:23;;;;;;;5.90;2.20;;;20.50;69.10;;;;;;6587476;43;110467;-74
2024/05/07 06:09:28;;;;;;;5.05;2.30;;;20.50;68.50;;;;;;6583999;43;110728;-78
2024/05/07 06:14:35;;;;;;;5.50;2.67;;;20.50;68.50;;;;;;6586344;43;111604;-73
2024/05/07 06:19:43;;;;;;;6.85;2.55;;;20.50;68.60;;;;;;6586781;43;111436;-70
2024/05/07 06:24:49;;;;;;;5.65;2.33;;;20.50;68.60;;;;;;6588909;43;111642;-75
2024/05/07 06:29:54;;;;;;;6.38;2.80;;;20.50;68.80;;;;;;6587367;43;110391;-73
2024/05/07 06:35:02;;;;;;;5.65;2.80;;;20.50;68.70;;;;;;6589763;43;111571;-77
2024/05/07 06:40:09;;;;;;;5.45;2.65;;;20.50;68.80;;;;;;6592256;43;113222;-75
2024/05/07 06:45:29;;;;;;;5.53;3.03;;;20.50;68.90;;;;;;6584840;43;111220;-71
2024/05/07 06:50:37;;;;;;;6.22;2.97;;;20.50;68.90;;;;;;6587796;43;110849;-76
2024/05/07 06:55:44;;;;;;;6.50;3.80;;;20.50;69.00;;;;;;6585858;43;114250;-79
2024/05/07 07:00:49;;;;;;;8.05;3.67;;;20.50;68.90;;;;;;6591615;43;115513;-74
2024/05/07 07:05:58;;;;;;;7.15;3.55;;;20.50;69.10;;;;;;6586740;43;114339;-82
2024/05/07 07:11:03;;;;;;;8.20;4.05;;;20.50;69.20;;;;;;6585926;43;115811;-78
2024/05/07 07:16:09;;;;;;;7.28;3.90;;;20.50;69.20;;;;;;6585361;43;115430;-78
2024/05/07 07:21:17;;;;;;;8.57;4.32;;;20.50;69.30;;;;;;6585765;43;115193;-71
2024/05/07 07:26:22;;;;;;;8.95;4.00;;;20.50;69.30;;;;;;6584130;43;115667;-77
2024/05/07 07:31:27;;;;;;;9.20;4.82;;;20.50;69.50;;;;;;6586941;43;114916;-79
2024/05/07 07:36:36;;;;;;;8.98;4.82;;;20.50;69.50;;;;;;6585413;43;110910;-78
2024/05/07 07:41:41;;;;;;;9.50;5.03;;;20.50;69.50;;;;;;6584960;43;110409;-75
2024/05/07 07:46:46;;;;;;;9.73;5.30;;;20.50;69.60;;;;;;6585372;43;110305;-77
2024/05/07 07:51:54;;;;;;;10.57;5.72;;;20.50;69.60;;;;;;6592231;43;112769;-80
2024/05/07 07:56:59;;;;;;;;;;;20.50;69.70;;;;;;6587745;43;110439;-79
2024/05/07 08:02:04;;;;;;;10.82;6.30;;;20.50;69.80;;;;;;6591598;43;110565;-79
2024/05/07 08:07:12;;;;;;;12.60;7.03;;;20.50;69.80;;;;;;6585760;43;111481;-79
2024/05/07 08:12:18;;;;;;;12.63;6.80;;;20.50;69.90;;;;;;6589134;43;111310;-76
2024/05/07 08:17:23;;;;;;;12.13;6.82;;;20.50;70.00;;;;;;6587793;43;110395;-75
2024/05/07 08:22:31;;;;;;;14.52;7.75;;;20.50;70.10;;;;;;6596036;43;112242;-78
2024/05/07 08:27:36;;;;;;;13.75;7.25;;;20.50;70.10;;;;;;6601578;43;112986;-74
2024/05/07 08:32:42;;;;;;;13.60;7.65;;;20.50;70.10;;;;;;6584813;43;110920;-73
2024/05/07 08:37:50;;;;;;;13.48;7.85;;;20.60;70.30;;;;;;6588460;43;110280;-75
2024/05/07 08:42:57;;;;;;;13.43;7.32;;;20.60;70.30;;;;;;6584256;43;114591;-76
2024/05/07 08:48:07;;;;;;;15.15;7.80;;;20.60;71.10;;;;;;6586460;43;114602;-75
2024/05/07 08:53:17;;;;;;;14.60;8.15;;;20.60;70.50;;;;;;6594154;43;114953;-82
2024/05/07 08:58:23;;;;;;;13.25;7.72;;;20.60;70.60;;;;;;6591088;43;114802;-73
2024/05/07 09:03:29;;;;;;;15.13;7.80;;;20.60;70.60;;;;;;6667217;37;115060;-77
2024/05/07 09:08:39;;;;;;;13.27;7.85;;;20.60;70.70;;;;;;6529111;43;114888;-73
2024/05/07 09:13:45;;;;;;;14.80;7.88;;;20.60;70.80;;;;;;6531278;43;114810;-78
2024/05/07 09:18:51;;;;;;;11.73;7.30;;;20.60;70.80;;;;;;6528634;43;115713;-72
2024/05/07 09:23:59;;;;;;;12.25;7.40;;;20.60;70.90;;;;;;6530128;43;115533;-76
2024/05/07 09:29:04;;;;;;;12.15;7.25;;;20.60;70.90;;;;;;6535430;43;112518;-75
2024/05/07 09:34:15;;;;;;;12.27;6.93;;;20.60;71.00;;;;;;6535864;43;110761;-75
2024/05/07 09:39:26;;;;;;;12.15;6.65;;;20.70;71.10;;;;;;6539797;43;110665;-73
2024/05/07 09:44:40;;;;;;;11.85;6.47;;;20.70;71.10;;;;;;6500283;43;110419;-73
2024/05/07 09:49:48;;;;;;;11.73;6.45;;;20.70;71.20;;;;;;6480245;44;110728;-72
2024/05/07 09:54:58;;;;;;;11.20;6.07;;;20.70;71.20;;;;;;6484556;44;113426;-73
2024/05/07 10:00:03;;;;;;;9.90;6.13;;;20.70;71.20;;;;;;6476956;44;110777;-75
2024/05/07 10:05:21;;;;;;;9.35;5.70;;;20.70;71.20;;;;;;6482037;44;110717;-77
2024/05/07 10:10:40;;;;;;;9.07;5.40;;;20.70;71.20;;;;;;6479743;43;110213;-72
2024/05/07 10:15:46;;;;;;;8.70;5.18;;;20.70;71.10;;;;;;6478450;43;110359;-77
2024/05/07 10:21:06;;;;;;;9.27;5.05;;;20.70;71.00;;;;;;6480967;43;110757;-75
2024/05/07 10:26:23;;;;;;;7.97;4.78;;;20.70;71.10;;;;;;6481628;43;110059;-81
2024/05/07 10:31:29;;;;;;;7.82;4.53;;;20.70;71.00;;;;;;6478783;43;114469;-73
2024/05/07 10:36:35;;;;;;;7.60;4.50;;;20.80;71.10;;;;;;6478204;44;114760;-74
2024/05/07 10:41:43;;;;;;;6.82;4.53;;;20.80;71.00;;;;;;6478489;43;112948;-75
2024/05/07 10:46:54;;;;;;;7.10;4.18;;;20.80;71.00;;;;;;6477542;43;114724;-78
2024/05/07 10:52:07;;;;;;;6.75;4.10;;;20.80;70.90;;;;;;6479292;43;113326;-81
2024/05/07 10:57:16;;;;;;;7.05;3.92;;;20.80;70.90;;;;;;6560451;43;115149;-74
2024/05/07 11:02:22;;;;;;;7.07;4.20;;;20.80;70.90;;;;;;6582228;43;114590;-79
2024/05/07 11:07:30;;;;;;;7.63;4.18;;;20.80;70.90;;;;;;6585194;43;115065;-76
2024/05/07 11:12:41;;;;;;;7.15;4.00;;;20.80;70.80;;;;;;6587204;43;114471;-78
2024/05/07 11:17:47;;;;;;;7.40;4.00;;;20.80;70.80;;;;;;6586289;43;110612;-80
2024/05/07 11:22:52;;;;;;;8.48;3.97;;;20.80;70.90;;;;;;6588167;43;110149;-76
2024/05/07 11:28:00;;;;;;;6.85;4.10;;;20.80;70.70;;;;;;6584735;43;110970;-80
2024/05/07 11:33:06;;;;;;;7.00;3.90;;;20.80;70.60;;;;;;6588470;43;111209;-77
2024/05/07 11:38:11;;;;;;;5.88;3.65;;;20.80;70.60;;;;;;6585642;43;111365;-80
2024/05/07 11:43:20;;;;;;;6.82;3.92;;;20.80;70.50;;;;;;6584229;43;110196;-76
2024/05/07 11:48:25;;;;;;;5.85;3.40;;;20.90;70.50;;;;;;6513437;43;110635;-73
2024/05/07 11:53:31;;;;;;;6.45;3.47;;;20.90;70.50;;;;;;6483400;43;110424;-74
2024/05/07 11:58:39;;;;;;;5.93;3.33;;;20.90;70.40;;;;;;6478658;43;111045;-73
2024/05/07 12:03:44;;;;;;;6.35;3.35;;;20.90;70.40;;;;;;6478994;43;112622;-80
2024/05/07 12:08:54;;;;;;;5.25;3.00;;;20.90;70.30;;;;;;6478628;43;111236;-73
2024/05/07 12:14:02;;;;;;;5.35;3.10;;;20.90;70.20;;;;;;6480163;43;111362;-77
2024/05/07 12:19:07;;;;;;;5.93;3.10;;;20.90;70.20;;;;;;6480443;43;110638;-80
2024/05/07 12:29:36;;;;;;;6.75;3.38;;;20.90;70.10;;;;;;6479410;44;114759;-74
2024/05/07 12:34:41;;;;;;;7.10;3.53;;;20.90;70.10;;;;;;6480348;43;114768;-78
2024/05/07 12:39:46;;;;;;;6.38;3.33;;;20.90;70.00;;;;;;6488508;43;115357;-78
2024/05/07 12:44:54;;;;;;;6.72;3.70;;;20.90;69.90;;;;;;6477110;43;115135;-76
2024/05/07 12:50:01;;;;;;;5.70;3.90;;;21.00;69.70;;;;;;6477788;43;114321;-79
2024/05/07 12:55:15;;;;;;;6.18;3.80;;;20.90;69.50;;;;;;6477834;44;114623;-74
2024/05/07 13:00:24;;;;;;;6.90;3.72;;;21.00;69.50;;;;;;6481645;43;114769;-75
2024/05/07 13:05:38;;;;;;;5.38;3.33;;;21.00;69.60;;;;;;6475875;44;110291;-75
2024/05/07 13:10:43;;;;;;;5.82;3.80;;;21.00;70.40;;;;;;6573008;43;110882;-77
2024/05/07 13:15:51;;;;;;;6.00;3.40;;;20.90;69.50;;;;;;6564418;43;110938;-74
2024/05/07 13:20:57;;;;;;;6.32;3.65;;;20.90;69.60;;;;;;6528133;43;110575;-77
2024/05/07 13:26:02;;;;;;;5.53;3.50;;;20.80;69.60;;;;;;6529248;43;111215;-78
2024/05/07 13:31:10;;;;;;;7.72;3.83;;;20.90;69.70;;;;;;6527291;43;110960;-77
2024/05/07 13:36:16;;;;;;;7.03;4.10;;;20.90;69.70;;;;;;6535881;43;112904;-77
2024/05/07 13:41:21;;;;;;;5.68;3.70;;;20.90;69.80;;;;;;6529939;43;111292;-80
2024/05/07 13:46:30;;;;;;;7.60;4.22;;;20.90;69.80;;;;;;6530598;43;110500;-77
2024/05/07 13:51:35;;;;;;;7.38;3.97;;;20.90;69.80;;;;;;6528798;43;110855;-78
2024/05/07 13:56:40;;;;;;;6.63;3.80;;;21.00;69.70;;;;;;6529310;43;112348;-78
2024/05/07 14:01:48;;;;;;;6.50;3.50;;;21.00;69.60;;;;;;6526654;43;110545;-76
2024/05/07 14:06:54;;;;;;;6.38;3.55;;;21.00;69.70;;;;;;6529335;43;110984;-74
2024/05/07 14:12:00;;;;;;;5.43;3.25;;;20.90;69.70;;;;;;6526365;43;115108;-75
2024/05/07 14:17:08;;;;;;;6.68;3.50;;;21.00;69.70;;;;;;6526433;43;114244;-75
2024/05/07 14:22:14;;;;;;;5.22;3.05;;;20.90;69.90;;;;;;6531627;43;117289;-75
2024/05/07 14:27:21;;;;;;;6.00;3.45;;;21.00;70.00;;;;;;6529227;43;114895;-73
2024/05/07 14:32:29;;;;;;;5.90;3.17;;;21.00;70.00;;;;;;6526459;43;115147;-74
2024/05/07 14:37:34;;;;;;;6.15;3.20;;;20.90;70.00;;;;;;6524997;43;114405;-72
2024/05/07 14:42:39;;;;;;;5.57;3.13;;;21.00;70.10;;;;;;6527787;43;115943;-73
2024/05/07 14:47:47;;;;;;;6.95;3.13;;;20.90;70.00;;;;;;6526935;43;115071;-73
2024/05/07 14:52:53;;;;;;;5.82;3.10;;;20.90;70.10;;;;;;6530057;43;113638;-75
2024/05/07 14:57:59;;;;;;;6.40;3.00;;;20.90;70.10;;;;;;6529220;43;110916;-73
2024/05/07 15:03:09;;;;;;;6.88;3.47;;;20.90;70.10;;;;;;6529282;43;110259;-77
2024/05/07 15:08:16;;;;;;;5.88;3.50;;;20.90;70.10;;;;;;6527119;43;110685;-77
2024/05/07 15:13:21;;;;;;;5.32;3.30;;;20.90;70.10;;;;;;6531946;43;111187;-75
2024/05/07 15:18:29;;;;;;;6.43;3.40;;;20.90;70.00;;;;;;6526620;43;110277;-78
2024/05/07 15:23:35;;;;;;;5.38;3.03;;;20.90;70.00;;;;;;6528154;43;110234;-77
2024/05/07 15:29:00;;;;;;;5.55;3.47;;;20.90;69.90;;;;;;6528276;43;110562;-77
2024/05/07 15:34:08;;;;;;;6.00;3.38;;;20.90;69.90;;;;;;6529312;43;110963;-75
2024/05/07 15:39:17;;;;;;;5.40;3.20;;;21.00;69.80;;;;;;6528791;43;111920;-77
2024/05/07 15:44:23;;;;;;;5.32;2.80;;;21.00;69.60;;;;;;6528029;43;110545;-75
2024/05/07 15:49:30;;;;;;;5.28;2.90;;;21.00;69.60;;;;;;6526682;43;111157;-75
2024/05/07 15:54:36;;;;;;;7.20;2.72;;;21.10;69.50;;;;;;6527809;43;111269;-73
2024/05/07 15:59:41;;;;;;;5.38;2.72;;;21.10;69.70;;;;;;6526213;43;113910;-72
2024/05/07 16:04:49;;;;;;;4.55;2.42;;;21.20;69.70;;;;;;6584904;43;116304;-78
2024/05/07 16:09:54;;;;;;;5.53;2.30;;;21.30;69.90;;;;;;6589841;43;116796;-76
2024/05/07 16:15:00;;;;;;;4.68;2.30;;;21.30;69.80;;;;;;6583098;43;115250;-72
2024/05/07 16:20:11;;;;;;;4.20;2.38;;;21.30;69.80;;;;;;6586163;43;114417;-76
2024/05/07 16:25:35;;;;;;;4.45;2.30;;;21.30;69.60;;;;;;6590578;43;116907;-75
2024/05/07 16:30:41;;;;;;;4.05;2.25;;;21.30;69.70;;;;;;6580450;43;116007;-78
2024/05/07 16:35:49;;;;;;;4.70;2.50;;;21.30;69.50;;;;;;6581229;43;115002;-80
2024/05/07 16:40:54;;;;;;;3.92;2.10;;;21.30;69.60;;;;;;6589950;43;116102;-78
2024/05/07 16:46:00;;;;;;;4.15;1.90;;;21.40;69.50;;;;;;6580057;43;111048;-79
2024/05/07 16:51:08;;;;;;;4.85;2.10;;;21.40;69.40;;;;;;6581380;43;111200;-73
2024/05/07 16:56:13;;;;;;;4.40;1.90;;;21.40;69.30;;;;;;6580988;43;111639;-71
2024/05/07 17:01:19;;;;;;;4.30;1.80;;;21.50;69.20;;;;;;6582435;43;110472;-77
2024/05/07 17:06:27;;;;;;;3.65;1.73;;;21.50;68.90;;;;;;6581544;43;110693;-77
2024/05/07 17:11:32;;;;;;;4.40;1.85;;;21.50;68.60;;;;;;6603162;43;110630;-76
2024/05/07 17:16:38;;;;;;;4.28;1.90;;;21.60;68.30;;;;;;6581007;43;110271;-72
2024/05/07 17:21:46;;;;;;;3.50;1.60;;;21.60;68.10;;;;;;6583502;43;111483;-74
2024/05/07 17:26:52;;;;;;;4.65;1.55;;;21.60;67.90;;;;;;6580204;43;111298;-72
2024/05/07 17:31:57;;;;;;;2.72;1.35;;;21.60;67.80;;;;;;6583107;43;110557;-72
2024/05/07 17:37:05;;;;;;;3.45;1.50;;;21.60;67.70;;;;;;6584524;43;111911;-77
2024/05/07 17:42:11;;;;;;;3.00;1.40;;;21.60;67.00;;;;;;6578792;43;110862;-70
2024/05/07 17:47:16;;;;;;;3.03;1.45;;;21.60;66.60;;;;;;6584192;43;111556;-78
2024/05/07 17:52:24;;;;;;;3.30;1.40;;;21.60;66.30;;;;;;6580860;43;114775;-78
2024/05/07 17:57:30;;;;;;;2.15;1.30;;;21.60;66.30;;;;;;6580165;43;113331;-79
2024/05/07 18:02:41;;;;;;;3.38;1.40;;;21.70;66.40;;;;;;6580977;43;114598;-76
2024/05/07 18:07:49;;;;;;;3.83;1.50;;;21.70;66.40;;;;;;6582604;43;114579;-76
2024/05/07 18:12:55;;;;;;;2.97;1.25;;;21.70;66.40;;;;;;6581668;43;115440;-79
2024/05/07 18:18:00;;;;;;;3.45;1.30;;;21.70;66.40;;;;;;6580135;43;114332;-78
2024/05/07 18:23:14;;;;;;;2.88;1.20;;;21.80;66.30;;;;;;6583495;43;114801;-77
2024/05/07 18:28:20;;;;;;;2.78;1.10;;;21.80;65.90;;;;;;6592511;43;117052;-76
2024/05/07 18:33:26;;;;;;;3.97;1.35;;;21.70;65.60;;;;;;6582164;43;110518;-71
2024/05/07 18:38:34;;;;;;;2.03;1.20;;;21.80;64.70;;;;;;6581072;43;110997;-74
2024/05/07 18:43:39;;;;;;;5.22;1.20;;;21.70;65.20;;;;;;6582994;43;111028;-72
2024/05/07 18:48:44;;;;;;;2.80;1.10;;;21.70;65.30;;;;;;6584646;43;110696;-74
2024/05/07 18:53:52;;;;;;;3.58;1.40;;;21.70;66.50;;;;;;6583167;43;110979;-74
2024/05/07 18:58:58;;;;;;;4.78;1.40;;;21.70;65.60;;;;;;6581508;43;111121;-72
2024/05/07 19:04:03;;;;;;;3.05;1.20;;;21.60;63.60;;;;;;6582006;43;111242;-71
2024/05/07 19:09:11;;;;;;;3.00;1.20;;;21.60;63.70;;;;;;6582266;43;110579;-72
2024/05/07 19:14:17;;;;;;;2.85;1.30;;;21.60;63.70;;;;;;6583345;43;110443;-72
2024/05/07 19:19:23;;;;;;;3.13;1.17;;;21.60;63.70;;;;;;6581398;43;110276;-76
2024/05/07 19:24:37;;;;;;;3.00;1.20;;;21.50;63.70;;;;;;6581438;43;111610;-72
2024/05/07 19:29:42;;;;;;;2.15;1.20;;;21.50;63.70;;;;;;6581988;43;110716;-76
2024/05/07 19:34:50;;;;;;;3.92;1.45;;;21.50;63.70;;;;;;6567020;43;110980;-79
2024/05/07 19:39:58;;;;;;;;;;;21.40;63.60;;;;;;6553698;43;118930;-75
2024/05/07 19:45:03;;;;;;;3.67;1.40;;;21.40;63.60;;;;;;6527234;43;113292;-72
2024/05/07 19:50:09;;;;;;;2.88;1.20;;;21.40;63.70;;;;;;6510557;43;114640;-73
2024/05/07 19:55:28;;;;;;;3.60;1.27;;;21.40;63.70;;;;;;6559870;43;116673;-78
2024/05/07 20:00:36;;;;;;;3.17;1.40;;;21.40;64.00;;;;;;6593743;43;115074;-76
2024/05/07 20:05:41;;;;;;;3.53;1.30;;;21.30;64.80;;;;;;6587318;43;116125;-74
2024/05/07 20:10:49;;;;;;;3.63;1.40;;;21.30;63.90;;;;;;6584467;43;115613;-76
2024/05/07 20:15:55;;;;;;;3.85;1.25;;;21.30;63.90;;;;;;6583191;43;114234;-75
2024/05/07 20:21:00;;;;;;;3.10;1.50;;;21.30;64.10;;;;;;6584765;43;113742;-76
2024/05/07 20:26:08;;;;;;;4.40;1.50;;;21.20;64.00;;;;;;6584482;43;111279;-77
2024/05/07 20:31:13;;;;;;;6.88;1.65;;;21.30;64.90;;;;;;6533673;43;112141;-76
2024/05/07 20:36:19;;;;;;;4.35;1.73;;;21.20;64.10;;;;;;6528951;43;111101;-80
2024/05/07 20:41:27;;;;;;;4.95;1.50;;;21.20;64.20;;;;;;6531086;43;110174;-80
2024/05/07 20:46:32;;;;;;;5.18;1.63;;;21.20;64.20;;;;;;6528872;43;110439;-81
2024/05/07 20:51:37;;;;;;;4.03;1.65;;;21.20;64.20;;;;;;6548596;43;110376;-77
2024/05/07 20:56:47;;;;;;;4.43;1.80;;;21.20;64.30;;;;;;6529212;43;111231;-79
2024/05/07 21:01:54;;;;;;;3.72;1.55;;;21.10;64.10;;;;;;6512573;43;113167;-77
2024/05/07 21:06:59;;;;;;;4.75;2.10;;;21.20;64.00;;;;;;6476788;44;110879;-78
2024/05/07 21:12:08;;;;;;;4.20;1.65;;;21.10;64.10;;;;;;6484389;43;112724;-76
2024/05/07 21:17:14;;;;;;;6.72;1.90;;;21.10;64.20;;;;;;6478597;43;111158;-79
2024/05/07 21:22:19;;;;;;;4.90;1.80;;;21.10;64.20;;;;;;6480258;43;110472;-81
2024/05/07 21:27:27;;;;;;;4.88;1.83;;;21.10;64.10;;;;;;6565036;43;115845;-78
2024/05/07 21:32:32;;;;;;;4.70;2.00;;;21.10;64.10;;;;;;6538520;43;116059;-78
2024/05/07 21:37:38;;;;;;;5.00;2.00;;;21.10;64.10;;;;;;6477371;43;113339;-80
2024/05/07 21:42:46;;;;;;;4.57;2.05;;;21.10;64.20;;;;;;6478870;43;114881;-80
2024/05/07 21:47:51;;;;;;;5.57;2.10;;;21.10;64.10;;;;;;6479594;43;113277;-79
2024/05/07 21:52:56;;;;;;;4.88;2.28;;;21.00;64.00;;;;;;6483956;44;119260;-81
2024/05/07 21:58:04;;;;;;;5.50;2.25;;;21.00;64.00;;;;;;6477289;43;115302;-81
2024/05/07 22:03:11;;;;;;;4.70;2.20;;;21.00;63.90;;;;;;6481489;43;117005;-71
2024/05/07 22:08:17;;;;;;;4.82;2.10;;;21.00;63.80;;;;;;6480010;44;115170;-73
2024/05/07 22:13:25;;;;;;;5.13;2.30;;;21.00;63.80;;;;;;6479955;43;111241;-72
2024/05/07 22:18:30;;;;;;;4.82;2.60;;;21.00;63.80;;;;;;6568888;43;113671;-73
2024/05/07 22:23:35;;;;;;;4.93;2.50;;;21.00;63.80;;;;;;6583980;43;110558;-72
2024/05/07 22:28:44;;;;;;;6.95;3.00;;;21.00;63.90;;;;;;6585650;43;110280;-75
2024/05/07 22:33:49;;;;;;;7.03;3.13;;;21.00;63.70;;;;;;6582910;43;110847;-79
2024/05/07 22:38:56;;;;;;;6.18;3.60;;;21.00;63.80;;;;;;6582379;43;110245;-81
2024/05/07 22:44:04;;;;;;;6.20;3.58;;;21.00;63.90;;;;;;6582477;43;110131;-79
2024/05/07 22:49:09;;;;;;;7.25;4.00;;;21.00;63.90;;;;;;6584963;43;110536;-76
2024/05/07 22:54:14;;;;;;;7.25;4.47;;;21.00;63.90;;;;;;6583755;43;110887;-78
2024/05/07 22:59:22;;;;;;;8.45;4.30;;;21.00;63.90;;;;;;6587253;43;112550;-73
2024/05/07 23:04:28;;;;;;;8.60;4.57;;;21.00;64.20;;;;;;6585497;43;110292;-79
2024/05/07 23:09:33;;;;;;;8.80;5.13;;;20.90;64.10;;;;;;6585094;43;110102;-79
2024/05/07 23:14:41;;;;;;;9.45;5.40;;;20.90;64.10;;;;;;6587342;43;110385;-72
2024/05/07 23:19:46;;;;;;;;;;;20.90;64.10;;;;;;6588845;43;114546;-75
2024/05/07 23:24:51;;;;;;;9.57;5.55;;;20.90;64.10;;;;;;6585735;43;115373;-78
2024/05/07 23:29:59;;;;;;;10.85;6.10;;;20.90;64.20;;;;;;6585612;43;114755;-71
2024/05/07 23:35:05;;;;;;;11.10;6.22;;;20.90;64.30;;;;;;6588487;43;113630;-72
2024/05/07 23:40:11;;;;;;;11.30;6.85;;;20.90;64.30;;;;;;6586734;43;116327;-71
2024/05/07 23:45:36;;;;;;;11.15;7.22;;;20.90;64.40;;;;;;6585327;43;115531;-71
2024/05/07 23:50:44;;;;;;;11.52;7.03;;;20.80;64.50;;;;;;6584387;43;115415;-73
2024/05/07 23:55:52;;;;;;;11.88;7.40;;;20.80;64.50;;;;;;6585890;43;115502;-74
